createdAt,value
2023-02-28T00:01:26.743Z,100119.30
2023-02-28T00:04:38.922Z,100127.11
2023-02-28T00:07:51.619Z,100121.20
2023-02-28T00:11:07.826Z,100126.50
2023-02-28T00:14:20.088Z,100123.08
2023-02-28T00:17:32.009Z,100137.06
2023-02-28T00:20:44.136Z,100124.89
2023-02-28T00:23:56.456Z,100137.11
2023-02-28T00:27:08.869Z,100136.48
2023-02-28T00:30:22.535Z,100133.89
2023-02-28T00:33:34.957Z,100139.28
2023-02-28T00:36:48.440Z,100133.36
2023-02-28T00:40:01.053Z,100129.12
2023-02-28T00:43:14.021Z,100132.55
2023-02-28T00:46:26.532Z,100131.02
2023-02-28T00:49:39.330Z,100130.20
2023-02-28T00:52:51.734Z,100133.70
2023-02-28T00:56:04.335Z,100130.56
2023-02-28T00:59:17.383Z,100126.38
2023-02-28T01:02:30.920Z,100135.19
2023-02-28T01:05:43.267Z,100133.70
2023-02-28T01:08:55.447Z,100131.05
2023-02-28T01:12:09.272Z,100135.52
2023-02-28T01:15:21.780Z,100133.98
2023-02-28T01:18:34.157Z,100134.86
2023-02-28T01:21:46.233Z,100135.78
2023-02-28T01:24:59.008Z,100139.27
2023-02-28T01:28:12.077Z,100130.63
2023-02-28T01:31:24.857Z,100134.20
2023-02-28T01:34:36.852Z,100134.14
2023-02-28T01:37:49.592Z,100138.59
2023-02-28T01:41:02.658Z,100136.03
2023-02-28T01:44:46.231Z,100137.77
2023-02-28T01:48:03.178Z,100133.53
2023-02-28T01:51:20.557Z,100137.16
2023-02-28T01:54:36.438Z,100132.77
2023-02-28T01:57:55.505Z,100128.22
2023-02-28T02:01:08.504Z,100136.03
2023-02-28T02:04:21.554Z,100141.25
2023-02-28T02:07:37.992Z,100134.40
2023-02-28T02:10:55.338Z,100124.94
2023-02-28T02:14:40.839Z,100125.16
2023-02-28T02:17:57.389Z,100117.44
2023-02-28T02:21:51.921Z,100122.91
2023-02-28T02:25:26.535Z,100123.25
2023-02-28T02:29:31.782Z,100127.69
2023-02-28T02:33:18.030Z,100124.41
2023-02-28T02:36:35.451Z,100125.23
2023-02-28T02:39:56.135Z,100119.97
2023-02-28T02:43:13.214Z,100109.61
2023-02-28T02:46:31.902Z,100112.30
2023-02-28T02:49:50.750Z,100114.23
2023-02-28T02:53:03.954Z,100112.45
2023-02-28T02:56:18.601Z,100113.50
2023-02-28T02:59:32.857Z,100104.92
2023-02-28T03:02:48.457Z,100107.56
2023-02-28T03:06:05.248Z,100109.27
2023-02-28T03:09:17.710Z,100111.04
2023-02-28T03:12:36.630Z,100112.92
2023-02-28T03:16:06.553Z,100112.96
2023-02-28T03:19:34.776Z,100109.55
2023-02-28T03:22:59.155Z,100122.70
2023-02-28T03:26:16.925Z,100119.27
2023-02-28T03:29:34.065Z,100128.82
2023-02-28T03:32:51.292Z,100138.51
2023-02-28T03:36:07.355Z,100137.69
2023-02-28T03:39:25.251Z,100136.86
2023-02-28T03:42:41.232Z,100138.77
2023-02-28T03:45:55.941Z,100139.67
2023-02-28T03:49:14.016Z,100143.16
2023-02-28T03:52:30.934Z,100143.16
2023-02-28T03:55:48.523Z,100144.11
2023-02-28T03:59:06.349Z,100154.56
2023-02-28T04:02:19.701Z,100152.87
2023-02-28T04:05:33.824Z,100154.60
2023-02-28T04:08:46.180Z,100154.64
2023-02-28T04:12:00.335Z,100155.64
2023-02-28T04:15:15.636Z,100162.63
2023-02-28T04:18:27.600Z,100159.19
2023-02-28T04:21:43.616Z,100161.83
2023-02-28T04:24:55.625Z,100139.52
2023-02-28T04:28:07.771Z,100156.71
2023-02-28T04:31:19.638Z,100165.38
2023-02-28T04:34:36.697Z,100166.30
2023-02-28T04:37:48.900Z,100175.91
2023-02-28T04:41:06.834Z,100172.48
2023-02-28T04:44:19.691Z,100171.66
2023-02-28T04:47:31.809Z,100176.03
2023-02-28T04:50:47.340Z,100172.67
2023-02-28T04:53:59.786Z,100173.58
2023-02-28T04:57:11.864Z,100177.05
2023-02-28T05:00:27.040Z,100177.09
2023-02-28T05:03:39.316Z,100180.52
2023-02-28T05:06:54.601Z,100181.42
2023-02-28T05:10:07.048Z,100190.96
2023-02-28T05:13:20.464Z,100187.61
2023-02-28T05:16:32.728Z,100192.81
2023-02-28T05:19:45.180Z,100178.11
2023-02-28T05:22:58.728Z,100181.65
2023-02-28T05:26:11.203Z,100191.98
2023-02-28T05:29:23.132Z,100189.34
2023-02-28T05:32:35.119Z,100195.38
2023-02-28T05:35:52.450Z,100195.41
2023-02-28T05:39:04.564Z,100208.42
2023-02-28T05:42:16.826Z,100211.09
2023-02-28T05:45:29.469Z,100217.99
2023-02-28T05:48:44.216Z,100224.13
2023-02-28T05:51:56.517Z,100228.36
2023-02-28T05:55:10.182Z,100222.25
2023-02-28T05:58:22.112Z,100229.84
2023-02-28T06:01:42.858Z,100229.69
2023-02-28T06:04:55.641Z,100229.65
2023-02-28T06:08:08.366Z,100234.89
2023-02-28T06:11:20.944Z,100233.13
2023-02-28T06:14:38.968Z,100236.48
2023-02-28T06:17:52.257Z,100241.38
2023-02-28T06:21:06.869Z,100238.53
2023-02-28T06:24:24.471Z,100243.41
2023-02-28T06:46:12.843Z,100258.92
2023-02-28T06:49:25.784Z,100251.89
2023-02-28T06:52:38.310Z,100255.16
2023-02-28T06:58:53.956Z,100266.23
2023-02-28T07:02:07.484Z,100266.09
2023-02-28T07:08:20.461Z,100274.83
2023-02-28T07:11:34.764Z,100270.58
2023-02-28T07:14:47.546Z,100274.74
2023-02-28T07:21:00.224Z,100281.66
2023-02-28T07:24:15.633Z,100290.38
2023-02-28T07:27:28.856Z,100285.86
2023-02-28T07:33:41.827Z,100278.88
2023-02-28T07:36:54.611Z,100287.61
2023-02-28T07:40:09.579Z,100279.08
2023-02-28T07:43:22.570Z,100282.16
2023-02-28T07:46:37.114Z,100276.27
2023-02-28T07:49:50.215Z,100286.03
2023-02-28T07:53:02.311Z,100278.92
2023-02-28T07:56:15.882Z,100276.73
2023-02-28T07:59:29.092Z,100270.28
2023-02-28T08:05:47.222Z,100272.23
2023-02-28T08:08:58.315Z,100266.48
2023-02-28T08:12:10.815Z,100269.13
2023-02-28T08:15:22.966Z,100265.44
2023-02-28T08:18:34.957Z,100270.14
2023-02-28T08:21:47.996Z,100265.43
2023-02-28T08:24:59.906Z,100266.69
2023-02-28T08:28:12.453Z,100267.34
2023-02-28T08:31:25.893Z,100275.30
2023-02-28T08:34:37.858Z,100274.31
2023-02-28T08:37:50.115Z,100261.80
2023-02-28T08:41:10.001Z,100257.88
2023-02-28T08:44:22.323Z,100251.50
2023-02-28T08:47:36.171Z,100255.93
2023-02-28T08:50:55.795Z,100254.42
2023-02-28T08:54:04.445Z,100232.38
2023-02-28T08:57:16.499Z,100239.18
2023-02-28T09:00:31.925Z,100235.28
2023-02-28T09:03:44.354Z,100247.08
2023-02-28T09:06:56.356Z,100236.43
2023-02-28T09:10:08.915Z,100231.73
2023-02-28T09:13:20.887Z,100231.14
2023-02-28T09:16:33.796Z,100229.13
2023-02-28T09:19:46.303Z,100223.23
2023-02-28T09:22:58.352Z,100231.72
2023-02-28T09:26:11.260Z,100217.80
2023-02-28T09:29:23.301Z,100227.08
2023-02-28T09:32:35.311Z,100228.72
2023-02-28T09:35:48.017Z,100231.73
2023-02-28T09:39:00.116Z,100225.11
2023-02-28T09:42:17.991Z,100229.31
2023-02-28T09:45:35.019Z,100221.35
2023-02-28T09:48:49.285Z,100224.62
2023-02-28T09:52:08.687Z,100217.98
2023-02-28T09:55:35.046Z,100231.86
2023-02-28T09:58:50.834Z,100236.43
2023-02-28T10:02:09.946Z,100237.89
2023-02-28T10:05:24.426Z,100236.13
2023-02-28T10:08:42.368Z,100231.25
2023-02-28T10:11:58.911Z,100228.61
2023-02-28T10:15:15.647Z,100226.70
2023-02-28T10:18:32.426Z,100219.47
2023-02-28T10:21:48.438Z,100228.95
2023-02-28T10:25:05.992Z,100222.63
2023-02-28T10:28:23.572Z,100219.51
2023-02-28T10:31:36.402Z,100213.77
2023-02-28T10:34:48.530Z,100212.39
2023-02-28T10:38:05.054Z,100206.64
2023-02-28T10:41:19.950Z,100205.85
2023-02-28T10:44:32.454Z,100200.38
2023-02-28T10:47:56.804Z,100205.08
2023-02-28T10:51:11.391Z,100209.27
2023-02-28T10:54:30.488Z,100201.17
2023-02-28T10:57:42.783Z,100195.89
2023-02-28T11:00:55.618Z,100194.16
2023-02-28T11:04:08.504Z,100187.20
2023-02-28T11:07:37.357Z,100176.89
2023-02-28T11:10:43.257Z,100174.64
2023-02-28T11:13:59.495Z,100174.97
2023-02-28T11:17:24.445Z,100170.42
2023-02-28T11:20:40.231Z,100173.01
2023-02-28T11:23:53.059Z,100170.70
2023-02-28T11:27:05.355Z,100158.16
2023-02-28T11:30:36.599Z,100157.72
2023-02-28T11:33:52.964Z,100141.91
2023-02-28T11:37:07.580Z,100132.09
2023-02-28T11:40:24.598Z,100135.27
2023-02-28T11:43:43.320Z,100139.08
2023-02-28T11:46:59.984Z,100136.39
2023-02-28T11:50:42.015Z,100127.84
2023-02-28T11:54:18.240Z,100128.05
2023-02-28T11:57:44.232Z,100120.31
2023-02-28T12:01:12.482Z,100125.91
2023-02-28T12:04:34.654Z,100121.91
2023-02-28T12:07:58.626Z,100119.66
2023-02-28T12:11:18.306Z,100111.13
2023-02-28T12:15:02.371Z,100116.36
2023-02-28T12:18:27.041Z,100115.50
2023-02-28T12:21:54.076Z,100117.52
2023-02-28T12:25:48.027Z,100124.73
2023-02-28T12:29:04.994Z,100118.80
2023-02-28T12:32:22.734Z,100117.84
2023-02-28T12:35:40.112Z,100127.16
2023-02-28T12:38:56.916Z,100133.05
2023-02-28T12:42:15.478Z,100125.63
2023-02-28T12:45:30.385Z,100121.30
2023-02-28T12:48:48.479Z,100123.94
2023-02-28T12:52:00.924Z,100125.88
2023-02-28T12:55:20.171Z,100122.91
2023-02-28T12:58:37.567Z,100125.97
2023-02-28T13:02:05.790Z,100113.88
2023-02-28T13:06:02.344Z,100125.91
2023-02-28T13:09:18.379Z,100120.91
2023-02-28T13:12:31.132Z,100113.88
2023-02-28T13:15:46.014Z,100112.46
2023-02-28T13:18:58.168Z,100113.30
2023-02-28T13:22:13.596Z,100105.53
2023-02-28T13:26:02.385Z,100104.44
2023-02-28T13:29:37.339Z,100105.29
2023-02-28T13:32:49.370Z,100094.27
2023-02-28T13:36:19.457Z,100093.22
2023-02-28T13:39:56.879Z,100089.88
2023-02-28T13:43:11.525Z,100091.09
2023-02-28T13:46:24.127Z,100089.02
2023-02-28T13:49:37.519Z,100093.08
2023-02-28T13:53:00.099Z,100087.02
2023-02-28T13:56:27.532Z,100084.66
2023-02-28T13:59:46.833Z,100072.29
2023-02-28T14:03:29.983Z,100071.10
2023-02-28T14:06:43.768Z,100064.11
2023-02-28T14:10:05.004Z,100065.66
2023-02-28T14:13:46.132Z,100066.81
2023-02-28T14:17:01.617Z,100063.69
2023-02-28T14:20:24.350Z,100060.23
2023-02-28T14:24:12.839Z,100065.98
2023-02-28T14:27:48.301Z,100063.41
2023-02-28T14:31:10.804Z,100065.44
2023-02-28T14:34:44.806Z,100065.58
2023-02-28T14:37:57.476Z,100061.88
2023-02-28T14:41:17.733Z,100063.58
2023-02-28T14:44:33.004Z,100063.78
2023-02-28T14:47:45.285Z,100064.25
2023-02-28T14:51:04.446Z,100075.24
2023-02-28T14:54:25.040Z,100063.29
2023-02-28T14:57:39.851Z,100078.08
2023-02-28T15:00:59.425Z,100076.47
2023-02-28T15:04:19.835Z,100075.50
2023-02-28T15:07:35.060Z,100071.39
2023-02-28T15:10:49.779Z,100077.08
2023-02-28T15:14:03.402Z,100077.42
2023-02-28T15:17:22.779Z,100074.05
2023-02-28T15:20:35.551Z,100071.14
2023-02-28T15:23:52.212Z,100075.45
2023-02-28T15:27:08.633Z,100072.12
2023-02-28T15:30:28.363Z,100074.89
2023-02-28T15:33:41.352Z,100068.45
2023-02-28T15:36:53.891Z,100080.80
2023-02-28T15:40:17.202Z,100071.53
2023-02-28T15:43:35.866Z,100075.99
2023-02-28T15:46:50.811Z,100063.91
2023-02-28T15:50:06.686Z,100070.50
2023-02-28T15:53:29.954Z,100076.13
2023-02-28T15:56:48.076Z,100083.34
2023-02-28T16:00:05.396Z,100075.91
2023-02-28T16:03:45.984Z,100080.69
2023-02-28T16:07:17.512Z,100080.62
2023-02-28T16:10:32.195Z,100084.20
2023-02-28T16:13:44.245Z,100085.31
2023-02-28T16:16:59.820Z,100082.59
2023-02-28T16:20:20.409Z,100083.50
2023-02-28T16:23:32.396Z,100089.91
2023-02-28T16:26:47.139Z,100093.91
2023-02-28T16:30:00.703Z,100088.10
2023-02-28T16:33:15.116Z,100088.23
2023-02-28T16:36:30.313Z,100088.41
2023-02-28T16:39:42.766Z,100099.28
2023-02-28T16:42:57.896Z,100111.58
2023-02-28T16:46:10.078Z,100103.34
2023-02-28T16:49:22.263Z,100116.15
2023-02-28T16:52:34.294Z,100116.24
2023-02-28T16:55:48.297Z,100113.78
2023-02-28T16:59:03.586Z,100109.75
2023-02-28T17:02:20.888Z,100119.30
2023-02-28T17:05:37.260Z,100122.72
2023-02-28T17:08:49.420Z,100118.63
2023-02-28T17:12:01.724Z,100125.77
2023-02-28T17:15:18.042Z,100097.13
2023-02-28T17:18:32.770Z,100119.05
2023-02-28T17:21:46.961Z,100121.52
2023-02-28T17:25:00.650Z,100117.23
2023-02-28T17:28:13.813Z,100126.84
2023-02-28T17:31:26.070Z,100125.23
2023-02-28T17:34:38.260Z,100127.20
2023-02-28T17:37:50.885Z,100118.19
2023-02-28T17:41:02.996Z,100128.45
2023-02-28T17:44:15.399Z,100116.46
2023-02-28T17:47:27.519Z,100115.57
2023-02-28T17:50:39.695Z,100116.58
2023-02-28T17:53:52.050Z,100113.04
2023-02-28T17:57:04.128Z,100114.77
2023-02-28T18:00:23.931Z,100114.79
2023-02-28T18:03:36.037Z,100110.55
2023-02-28T18:06:53.493Z,100110.57
2023-02-28T18:10:05.636Z,100115.05
2023-02-28T18:13:17.800Z,100117.79
2023-02-28T18:16:30.242Z,100117.06
2023-02-28T18:19:42.626Z,100122.55
2023-02-28T18:22:54.849Z,100114.77
2023-02-28T18:26:06.867Z,100119.28
2023-02-28T18:29:24.218Z,100117.78
2023-02-28T18:32:37.032Z,100116.97
2023-02-28T18:35:49.070Z,100123.20
2023-02-28T18:39:01.463Z,100114.63
2023-02-28T18:42:13.618Z,100118.98
2023-02-28T18:45:25.900Z,100111.33
2023-02-28T18:48:38.431Z,100115.86
2023-02-28T18:51:50.739Z,100110.70
2023-02-28T18:55:02.712Z,100108.20
2023-02-28T18:58:15.097Z,100106.86
2023-02-28T19:01:32.094Z,100109.60
2023-02-28T19:04:46.671Z,100114.80
2023-02-28T19:07:58.711Z,100112.19
2023-02-28T19:11:18.062Z,100107.96
2023-02-28T19:18:10.642Z,100119.66
2023-02-28T19:21:40.826Z,100116.23
2023-02-28T19:24:52.928Z,100111.06
2023-02-28T19:28:06.928Z,100111.94
2023-02-28T19:31:24.886Z,100112.16
2023-02-28T19:34:38.775Z,100116.02
2023-02-28T19:37:52.746Z,100120.88
2023-02-28T19:41:14.832Z,100121.64
2023-02-28T19:44:26.882Z,100118.22
2023-02-28T19:47:40.758Z,100109.05
2023-02-28T19:50:52.704Z,100120.17
2023-02-28T19:54:05.061Z,100117.62
2023-02-28T19:57:17.193Z,100111.58
2023-02-28T20:00:29.968Z,100112.41
2023-02-28T20:03:42.267Z,100116.06
2023-02-28T20:06:54.692Z,100116.23
2023-02-28T20:10:06.993Z,100114.89
2023-02-28T20:13:20.705Z,100113.43
2023-02-28T20:16:35.007Z,100116.27
2023-02-28T20:19:47.473Z,100118.06
2023-02-28T20:22:59.819Z,100115.67
2023-02-28T20:26:12.188Z,100125.34
2023-02-28T20:29:24.596Z,100122.99
2023-02-28T20:32:39.155Z,100126.74
2023-02-28T20:35:52.944Z,100122.17
2023-02-28T20:39:05.092Z,100122.08
2023-02-28T20:42:17.410Z,100117.77
2023-02-28T20:45:29.973Z,100114.36
2023-02-28T20:48:43.062Z,100113.59
2023-02-28T20:51:55.473Z,100107.56
2023-02-28T20:55:07.990Z,100117.17
2023-02-28T20:58:20.502Z,100115.70
2023-02-28T21:01:34.516Z,100105.67
2023-02-28T21:04:46.923Z,100112.93
2023-02-28T21:07:59.050Z,100109.45
2023-02-28T21:11:17.574Z,100115.00
2023-02-28T21:14:31.886Z,100105.55
2023-02-28T21:17:44.204Z,100112.21
2023-02-28T21:20:56.699Z,100106.90
2023-02-28T21:24:09.728Z,100105.20
2023-02-28T21:27:21.937Z,100110.47
2023-02-28T21:30:34.453Z,100107.97
2023-02-28T21:33:47.372Z,100114.82
2023-02-28T21:36:59.782Z,100113.16
2023-02-28T21:40:14.959Z,100112.34
2023-02-28T21:43:27.173Z,100113.03
2023-02-28T21:46:39.480Z,100115.00
2023-02-28T21:49:51.778Z,100116.78
2023-02-28T21:53:03.909Z,100116.73
2023-02-28T21:56:21.119Z,100116.69
2023-02-28T21:59:33.639Z,100115.14
2023-02-28T22:02:46.120Z,100118.71
2023-02-28T22:05:58.653Z,100108.34
2023-02-28T22:09:14.252Z,100110.27
2023-02-28T22:12:27.101Z,100113.92
2023-02-28T22:15:41.803Z,100109.67
2023-02-28T22:18:54.751Z,100122.56
2023-02-28T22:22:07.181Z,100120.83
2023-02-28T22:25:20.168Z,100123.39
2023-02-28T22:28:33.016Z,100123.34
2023-02-28T22:31:45.341Z,100124.26
2023-02-28T22:34:59.660Z,100131.25
2023-02-28T22:38:11.875Z,100136.45
2023-02-28T22:41:26.681Z,100139.92
2023-02-28T22:44:39.055Z,100141.62
2023-02-28T22:47:53.851Z,100146.05
2023-02-28T22:51:15.129Z,100145.18
2023-02-28T22:54:27.747Z,100151.39
2023-02-28T22:57:40.315Z,100155.91
2023-02-28T23:00:54.879Z,100161.25
2023-02-28T23:04:07.352Z,100163.89
2023-02-28T23:07:21.501Z,100158.69
2023-02-28T23:10:33.694Z,100156.95
2023-02-28T23:13:47.846Z,100156.13
2023-02-28T23:17:01.029Z,100159.68
2023-02-28T23:20:16.482Z,100160.55
2023-02-28T23:23:28.660Z,100163.23
2023-02-28T23:26:41.941Z,100168.56
2023-02-28T23:29:54.199Z,100170.34
2023-02-28T23:33:06.209Z,100171.30
2023-02-28T23:36:21.284Z,100166.13
2023-02-28T23:39:35.431Z,100175.67
2023-02-28T23:42:47.431Z,100172.20
2023-02-28T23:46:04.139Z,100172.24
2023-02-28T23:49:16.450Z,100163.61
2023-02-28T23:52:29.990Z,100164.39
2023-02-28T23:55:41.995Z,100165.22
2023-02-28T23:58:55.326Z,100161.78
